createdAt,value
2023-01-17T00:01:50.215Z,10.12
2023-01-17T00:04:35.645Z,10.02
2023-01-17T00:07:20.994Z,10.11
2023-01-17T00:09:53.688Z,10.10
2023-01-17T00:12:21.686Z,10.04
2023-01-17T00:14:48.502Z,9.96
2023-01-17T00:17:15.716Z,10.03
2023-01-17T00:20:01.180Z,10.01
2023-01-17T00:22:49.162Z,9.69
2023-01-17T00:25:40.191Z,9.19
2023-01-17T00:28:07.737Z,9.46
2023-01-17T00:30:34.532Z,9.60
2023-01-17T00:33:01.223Z,8.79
2023-01-17T00:35:30.208Z,9.53
2023-01-17T00:38:04.838Z,9.41
2023-01-17T00:40:33.223Z,9.28
2023-01-17T00:43:18.467Z,9.80
2023-01-17T00:46:04.751Z,9.90
2023-01-17T00:48:51.200Z,9.98
2023-01-17T00:51:37.729Z,9.87
2023-01-17T00:54:23.859Z,9.76
2023-01-17T00:57:09.368Z,9.32
2023-01-17T00:59:55.217Z,9.83
2023-01-17T01:02:41.515Z,9.91
2023-01-17T01:05:27.879Z,10.15
2023-01-17T01:08:14.537Z,9.79
2023-01-17T01:11:01.179Z,9.79
2023-01-17T01:13:48.432Z,9.89
2023-01-17T01:19:38.143Z,9.65
2023-01-17T01:22:23.624Z,9.89
2023-01-17T01:25:09.315Z,9.08
2023-01-17T01:27:54.280Z,9.74
2023-01-17T01:30:39.649Z,9.98
2023-01-17T01:33:21.070Z,9.61
2023-01-17T01:35:53.866Z,9.76
2023-01-17T01:38:25.334Z,10.07
2023-01-17T01:40:54.832Z,9.81
2023-01-17T01:43:39.073Z,10.06
2023-01-17T01:46:06.862Z,9.89
2023-01-17T01:48:46.482Z,10.23
2023-01-17T01:51:22.091Z,10.08
2023-01-17T01:53:53.018Z,10.24
2023-01-17T01:56:23.437Z,10.06
2023-01-17T01:58:52.629Z,10.16
2023-01-17T02:01:19.952Z,10.36
2023-01-17T02:03:48.440Z,10.20
2023-01-17T02:06:26.972Z,10.00
2023-01-17T02:08:54.265Z,9.92
2023-01-17T02:11:22.350Z,10.03
2023-01-17T02:13:49.117Z,10.01
2023-01-17T02:16:28.373Z,9.88
2023-01-17T02:19:01.544Z,9.93
2023-01-17T02:21:37.637Z,9.53
2023-01-17T02:24:26.147Z,9.85
2023-01-17T02:26:53.033Z,9.28
2023-01-17T02:29:34.948Z,9.21
2023-01-17T02:32:18.221Z,9.87
2023-01-17T02:35:25.600Z,10.12
2023-01-17T02:38:12.772Z,9.88
2023-01-17T02:40:49.724Z,9.83
2023-01-17T02:43:20.556Z,10.04
2023-01-17T02:45:47.467Z,9.90
2023-01-17T02:48:16.971Z,9.84
2023-01-17T02:50:52.486Z,10.00
2023-01-17T02:53:36.881Z,10.02
2023-01-17T02:56:14.333Z,10.10
2023-01-17T02:59:06.712Z,9.92
2023-01-17T03:01:48.378Z,10.23
2023-01-17T03:04:20.214Z,10.07
2023-01-17T03:07:01.781Z,9.80
2023-01-17T03:09:30.441Z,9.98
2023-01-17T03:11:58.500Z,9.06
2023-01-17T03:14:25.201Z,9.43
2023-01-17T03:16:52.994Z,10.01
2023-01-17T03:19:19.999Z,9.71
2023-01-17T03:21:46.741Z,9.86
2023-01-17T03:24:13.537Z,9.95
2023-01-17T03:26:40.366Z,10.26
2023-01-17T03:29:07.128Z,9.97
2023-01-17T03:31:33.887Z,9.77
2023-01-17T03:34:00.704Z,9.72
2023-01-17T03:36:27.619Z,9.83
2023-01-17T03:38:54.368Z,9.73
2023-01-17T03:41:21.129Z,9.65
2023-01-17T03:43:48.069Z,9.89
2023-01-17T03:46:23.606Z,10.01
2023-01-17T03:48:51.068Z,10.00
2023-01-17T03:51:18.699Z,9.78
2023-01-17T03:53:50.001Z,9.28
2023-01-17T03:56:16.869Z,9.84
2023-01-17T03:58:44.050Z,10.12
2023-01-17T04:01:11.515Z,10.10
2023-01-17T04:03:38.459Z,10.05
2023-01-17T04:06:05.601Z,9.99
2023-01-17T04:08:33.407Z,9.81
2023-01-17T04:11:00.415Z,10.23
2023-01-17T04:13:27.240Z,10.05
2023-01-17T04:15:54.080Z,10.22
2023-01-17T04:18:23.213Z,10.49
2023-01-17T04:20:50.853Z,10.40
2023-01-17T04:23:18.227Z,10.23
2023-01-17T04:25:45.103Z,10.30
2023-01-17T04:28:12.576Z,10.28
2023-01-17T04:30:39.578Z,9.77
2023-01-17T04:33:06.427Z,9.85
2023-01-17T04:35:33.696Z,9.89
2023-01-17T04:38:00.867Z,10.16
2023-01-17T04:40:29.545Z,10.32
2023-01-17T04:42:57.928Z,9.38
2023-01-17T04:45:24.885Z,9.94
2023-01-17T04:47:51.610Z,9.68
2023-01-17T04:50:18.805Z,9.23
2023-01-17T04:52:45.600Z,9.86
2023-01-17T04:55:12.435Z,9.90
2023-01-17T04:57:39.155Z,10.03
2023-01-17T05:00:06.608Z,9.88
2023-01-17T05:02:33.431Z,10.37
2023-01-17T05:05:00.304Z,10.44
2023-01-17T05:07:27.012Z,10.65
2023-01-17T05:09:53.823Z,10.36
2023-01-17T05:12:20.871Z,10.60
2023-01-17T05:14:47.739Z,10.76
2023-01-17T05:17:14.579Z,10.33
2023-01-17T05:19:41.469Z,10.44
2023-01-17T05:22:15.168Z,9.95
2023-01-17T05:24:46.698Z,10.60
2023-01-17T05:27:14.769Z,10.70
2023-01-17T05:29:41.854Z,10.84
2023-01-17T05:32:08.934Z,10.44
2023-01-17T05:34:35.700Z,10.71
2023-01-17T05:37:02.526Z,10.82
2023-01-17T05:39:30.985Z,10.56
2023-01-17T05:41:59.097Z,10.48
2023-01-17T05:44:27.598Z,10.76
2023-01-17T05:46:55.105Z,10.95
2023-01-17T05:49:21.943Z,10.75
2023-01-17T05:51:48.883Z,10.97
2023-01-17T05:54:15.776Z,10.81
2023-01-17T05:56:42.625Z,10.96
2023-01-17T05:59:09.525Z,11.04
2023-01-17T06:01:36.199Z,11.09
2023-01-17T06:04:02.897Z,10.81
2023-01-17T06:06:29.724Z,11.11
2023-01-17T06:08:56.550Z,11.21
2023-01-17T06:11:23.392Z,10.46
2023-01-17T06:13:50.214Z,10.51
2023-01-17T06:16:17.112Z,10.64
2023-01-17T06:18:43.966Z,10.17
2023-01-17T06:21:10.763Z,10.47
2023-01-17T06:23:37.433Z,10.61
2023-01-17T06:26:04.866Z,10.89
2023-01-17T06:28:31.651Z,11.42
2023-01-17T06:30:59.868Z,11.32
2023-01-17T06:33:26.882Z,11.37
2023-01-17T06:35:53.751Z,11.49
2023-01-17T06:38:21.212Z,11.03
2023-01-17T06:40:48.270Z,11.22
2023-01-17T06:43:15.782Z,11.74
2023-01-17T06:45:42.591Z,11.02
2023-01-17T06:48:10.395Z,11.54
2023-01-17T06:50:38.082Z,11.77
2023-01-17T06:53:06.579Z,11.15
2023-01-17T06:55:34.830Z,11.63
2023-01-17T06:58:03.075Z,11.63
2023-01-17T07:00:31.820Z,11.78
2023-01-17T07:02:58.640Z,11.87
2023-01-17T07:05:27.360Z,11.96
2023-01-17T07:07:54.309Z,11.55
2023-01-17T07:10:21.356Z,11.37
2023-01-17T07:12:48.155Z,11.49
2023-01-17T07:15:15.194Z,11.87
2023-01-17T07:17:42.108Z,12.05
2023-01-17T07:20:09.492Z,11.43
2023-01-17T07:22:37.795Z,11.10
2023-01-17T07:25:05.317Z,11.76
2023-01-17T07:27:33.567Z,11.47
2023-01-17T07:30:00.533Z,11.30
2023-01-17T07:32:27.960Z,11.72
2023-01-17T07:34:57.422Z,12.38
2023-01-17T07:37:25.971Z,12.06
2023-01-17T07:39:53.095Z,12.71
2023-01-17T07:42:19.892Z,13.01
2023-01-17T07:44:47.191Z,12.52
2023-01-17T07:47:14.078Z,12.76
2023-01-17T07:49:40.945Z,12.75
2023-01-17T07:52:08.122Z,12.90
2023-01-17T07:54:35.519Z,13.25
2023-01-17T07:57:02.251Z,13.04
2023-01-17T07:59:29.523Z,13.03
2023-01-17T08:01:56.483Z,13.50
2023-01-17T08:04:26.257Z,13.43
2023-01-17T08:06:55.049Z,13.01
2023-01-17T08:09:22.085Z,12.80
2023-01-17T08:11:49.170Z,13.32
2023-01-17T08:14:16.067Z,13.86
2023-01-17T08:16:43.063Z,13.90
2023-01-17T08:19:10.439Z,14.19
2023-01-17T08:21:37.319Z,14.15
2023-01-17T08:24:04.514Z,14.29
2023-01-17T08:26:31.310Z,13.58
2023-01-17T08:29:02.515Z,13.77
2023-01-17T08:31:34.179Z,14.22
2023-01-17T08:34:01.190Z,14.60
2023-01-17T08:36:28.735Z,14.27
2023-01-17T08:38:55.684Z,14.36
2023-01-17T08:41:23.939Z,13.87
2023-01-17T08:43:51.871Z,14.37
2023-01-17T08:46:19.384Z,14.65
2023-01-17T08:48:46.324Z,14.55
2023-01-17T08:51:13.767Z,14.15
2023-01-17T08:53:40.806Z,14.53
2023-01-17T08:56:07.877Z,14.94
2023-01-17T08:58:35.883Z,14.71
2023-01-17T09:01:04.420Z,14.67
2023-01-17T09:03:32.173Z,14.68
2023-01-17T09:06:07.189Z,14.87
2023-01-17T09:08:34.821Z,14.81
2023-01-17T09:11:10.189Z,14.94
2023-01-17T09:13:37.937Z,15.24
2023-01-17T09:16:05.818Z,15.30
2023-01-17T09:18:34.241Z,15.19
2023-01-17T09:21:10.768Z,15.41
2023-01-17T09:23:37.681Z,15.51
2023-01-17T09:26:04.442Z,15.64
2023-01-17T09:28:31.304Z,15.74
2023-01-17T09:30:58.041Z,15.65
2023-01-17T09:33:25.316Z,15.93
2023-01-17T09:35:52.082Z,15.68
2023-01-17T09:38:21.720Z,15.73
2023-01-17T09:40:48.849Z,16.03
2023-01-17T09:43:41.715Z,16.13
2023-01-17T09:46:22.554Z,16.27
2023-01-17T09:48:59.054Z,16.34
2023-01-17T09:51:25.964Z,16.01
2023-01-17T09:53:53.955Z,15.91
2023-01-17T09:56:23.480Z,15.83
2023-01-17T09:58:50.136Z,15.60
2023-01-17T10:01:28.668Z,15.94
2023-01-17T10:04:10.663Z,16.00
2023-01-17T10:06:59.231Z,15.91
2023-01-17T10:09:56.407Z,16.05
2023-01-17T10:13:05.202Z,16.37
2023-01-17T10:15:49.816Z,16.17
2023-01-17T10:18:44.447Z,15.61
2023-01-17T10:21:21.601Z,15.99
2023-01-17T10:24:28.928Z,16.25
2023-01-17T10:26:57.707Z,16.10
2023-01-17T10:29:28.420Z,15.86
2023-01-17T10:32:02.927Z,15.94
2023-01-17T10:34:36.453Z,16.01
2023-01-17T10:37:20.898Z,16.13
2023-01-17T10:39:50.113Z,16.12
2023-01-17T10:42:27.061Z,16.36
2023-01-17T10:45:07.580Z,16.51
2023-01-17T10:47:37.642Z,16.58
2023-01-17T10:50:11.579Z,16.92
2023-01-17T10:52:45.319Z,17.15
2023-01-17T10:55:19.009Z,17.07
2023-01-17T10:57:48.626Z,16.81
2023-01-17T11:00:44.136Z,16.40
2023-01-17T11:03:17.028Z,16.58
2023-01-17T11:05:44.163Z,16.86
2023-01-17T11:08:13.582Z,16.80
2023-01-17T11:10:47.145Z,16.40
2023-01-17T11:13:35.968Z,16.64
2023-01-17T11:16:21.223Z,17.08
2023-01-17T11:19:04.331Z,17.17
2023-01-17T11:21:33.263Z,16.75
2023-01-17T11:24:11.216Z,16.95
2023-01-17T11:26:47.423Z,16.97
2023-01-17T11:29:37.531Z,16.88
2023-01-17T11:32:23.060Z,17.31
2023-01-17T11:35:14.467Z,17.54
2023-01-17T11:37:57.406Z,17.32
2023-01-17T11:40:36.094Z,16.98
2023-01-17T11:43:04.724Z,16.97
2023-01-17T11:45:34.885Z,17.37
2023-01-17T11:48:13.835Z,16.87
2023-01-17T11:50:59.283Z,17.61
2023-01-17T11:53:40.687Z,17.22
2023-01-17T11:56:33.683Z,17.63
2023-01-17T11:59:19.299Z,17.88
2023-01-17T12:01:58.146Z,17.69
2023-01-17T12:04:29.799Z,17.96
2023-01-17T12:07:43.511Z,17.62
2023-01-17T12:10:22.070Z,17.51
2023-01-17T12:13:33.737Z,17.60
2023-01-17T12:16:30.747Z,17.70
2023-01-17T12:19:38.167Z,17.48
2023-01-17T12:22:07.671Z,17.33
2023-01-17T12:24:40.551Z,18.08
2023-01-17T12:27:22.950Z,17.73
2023-01-17T12:30:02.175Z,17.83
2023-01-17T12:33:00.120Z,17.97
2023-01-17T12:35:41.251Z,18.23
2023-01-17T12:38:31.758Z,18.34
2023-01-17T12:41:07.168Z,18.84
2023-01-17T12:43:37.392Z,18.75
2023-01-17T12:46:31.141Z,18.69
2023-01-17T12:49:29.961Z,18.71
2023-01-17T12:52:05.018Z,18.26
2023-01-17T12:54:39.178Z,18.21
2023-01-17T12:57:14.110Z,18.35
2023-01-17T12:59:50.151Z,18.18
2023-01-17T13:02:23.087Z,18.41
2023-01-17T13:04:59.313Z,18.14
2023-01-17T13:07:37.291Z,18.83
2023-01-17T13:10:19.240Z,18.39
2023-01-17T13:12:48.636Z,18.48
2023-01-17T13:15:26.129Z,18.53
2023-01-17T13:18:15.438Z,19.10
2023-01-17T13:20:52.858Z,18.40
2023-01-17T13:23:30.213Z,18.48
2023-01-17T13:25:59.766Z,18.44
2023-01-17T13:28:55.090Z,18.55
2023-01-17T13:31:48.922Z,18.02
2023-01-17T13:34:28.082Z,18.33
2023-01-17T13:37:22.273Z,18.95
2023-01-17T13:40:29.852Z,18.55
2023-01-17T13:43:00.923Z,18.57
2023-01-17T13:45:32.034Z,18.26
2023-01-17T13:48:20.192Z,18.80
2023-01-17T13:50:56.855Z,18.25
2023-01-17T13:53:31.468Z,19.13
2023-01-17T13:56:19.536Z,18.85
2023-01-17T13:58:50.220Z,18.12
2023-01-17T14:01:23.163Z,18.38
2023-01-17T14:03:50.235Z,18.76
2023-01-17T14:06:35.760Z,19.09
2023-01-17T14:09:11.828Z,18.37
2023-01-17T14:11:57.188Z,18.19
2023-01-17T14:14:46.636Z,18.46
2023-01-17T14:17:16.292Z,18.34
2023-01-17T14:19:48.366Z,18.95
2023-01-17T14:22:27.471Z,19.09
2023-01-17T14:25:09.864Z,18.57
2023-01-17T14:27:42.792Z,18.31
2023-01-17T14:30:20.553Z,18.26
2023-01-17T14:32:59.527Z,19.11
2023-01-17T14:35:29.832Z,17.83
2023-01-17T14:38:03.099Z,18.33
2023-01-17T14:40:33.351Z,18.03
2023-01-17T14:43:11.576Z,18.16
2023-01-17T14:45:39.209Z,18.08
2023-01-17T14:48:18.012Z,18.14
2023-01-17T14:50:47.191Z,17.49
2023-01-17T14:53:13.988Z,17.57
2023-01-17T14:55:55.230Z,17.81
2023-01-17T14:58:26.481Z,18.07
2023-01-17T15:01:13.519Z,17.74
2023-01-17T15:03:53.464Z,18.44
2023-01-17T15:06:24.187Z,17.97
2023-01-17T15:08:54.515Z,18.14
2023-01-17T15:11:33.248Z,18.67
2023-01-17T15:14:05.936Z,18.54
2023-01-17T15:16:38.200Z,18.64
2023-01-17T15:19:13.952Z,18.33
2023-01-17T15:21:43.237Z,18.14
2023-01-17T15:24:34.402Z,18.67
2023-01-17T15:27:01.907Z,18.67
2023-01-17T15:29:33.400Z,18.06
2023-01-17T15:32:03.327Z,17.89
2023-01-17T15:34:31.518Z,18.33
2023-01-17T15:37:04.299Z,18.54
2023-01-17T15:39:34.651Z,17.67
2023-01-17T15:42:05.848Z,18.59
2023-01-17T15:44:48.555Z,18.90
2023-01-17T15:47:36.070Z,18.73
2023-01-17T15:50:24.625Z,18.97
2023-01-17T15:52:57.054Z,18.87
2023-01-17T15:55:31.220Z,18.86
2023-01-17T15:57:58.121Z,18.89
2023-01-17T16:00:37.696Z,19.19
2023-01-17T16:03:19.549Z,18.78
2023-01-17T16:05:47.046Z,18.86
2023-01-17T16:08:16.387Z,18.73
2023-01-17T16:10:44.301Z,18.51
2023-01-17T16:13:12.898Z,18.06
2023-01-17T16:15:42.825Z,18.51
2023-01-17T16:18:25.015Z,18.64
2023-01-17T16:20:59.059Z,18.07
2023-01-17T16:23:28.453Z,18.25
2023-01-17T16:25:55.265Z,18.31
2023-01-17T16:28:22.490Z,18.10
2023-01-17T16:30:49.229Z,18.07
2023-01-17T16:33:16.204Z,16.38
2023-01-17T16:35:44.082Z,17.01
2023-01-17T16:38:13.106Z,16.98
2023-01-17T16:40:44.167Z,16.91
2023-01-17T16:43:12.239Z,17.02
2023-01-17T16:45:44.129Z,17.36
2023-01-17T16:48:12.676Z,17.07
2023-01-17T16:50:48.242Z,17.36
2023-01-17T16:53:15.972Z,16.66
2023-01-17T16:55:44.134Z,16.60
2023-01-17T16:58:10.935Z,16.24
2023-01-17T17:00:39.489Z,16.39
2023-01-17T17:03:06.408Z,16.06
2023-01-17T17:05:37.512Z,16.07
2023-01-17T17:08:04.626Z,15.76
2023-01-17T17:10:31.491Z,16.27
2023-01-17T17:12:58.324Z,16.89
2023-01-17T17:15:25.069Z,16.43
2023-01-17T17:17:52.483Z,15.98
2023-01-17T17:20:19.412Z,16.52
2023-01-17T17:22:50.831Z,16.79
2023-01-17T17:25:18.968Z,17.19
2023-01-17T17:27:45.656Z,16.60
2023-01-17T17:30:13.634Z,16.85
2023-01-17T17:32:40.650Z,16.83
2023-01-17T17:35:07.862Z,16.27
2023-01-17T17:37:34.664Z,16.96
2023-01-17T17:40:01.605Z,17.20
2023-01-17T17:42:28.345Z,17.03
2023-01-17T17:44:55.076Z,16.59
2023-01-17T17:47:21.822Z,16.88
2023-01-17T17:49:48.759Z,16.97
2023-01-17T17:52:15.969Z,16.99
2023-01-17T17:54:42.682Z,16.68
2023-01-17T17:57:09.687Z,16.85
2023-01-17T17:59:36.405Z,16.79
2023-01-17T18:02:03.357Z,17.37
2023-01-17T18:04:30.111Z,17.30
2023-01-17T18:06:57.893Z,16.21
2023-01-17T18:09:24.748Z,16.72
2023-01-17T18:11:51.998Z,17.21
2023-01-17T18:14:21.105Z,16.86
2023-01-17T18:16:48.574Z,16.25
2023-01-17T18:19:18.470Z,15.92
2023-01-17T18:21:45.813Z,16.35
2023-01-17T18:24:15.092Z,16.59
2023-01-17T18:26:45.415Z,16.79
2023-01-17T18:29:15.736Z,16.90
2023-01-17T18:31:44.269Z,16.71
2023-01-17T18:34:14.717Z,16.39
2023-01-17T18:36:43.979Z,16.37
2023-01-17T18:39:16.572Z,16.66
2023-01-17T18:41:44.029Z,16.49
2023-01-17T18:44:11.945Z,17.13
2023-01-17T18:46:40.351Z,16.91
2023-01-17T18:49:07.410Z,16.94
2023-01-17T18:51:34.806Z,17.09
2023-01-17T18:54:05.847Z,17.21
2023-01-17T18:56:36.494Z,16.48
2023-01-17T18:59:05.869Z,16.63
2023-01-17T19:01:35.971Z,16.47
2023-01-17T19:04:06.620Z,15.90
2023-01-17T19:06:36.922Z,16.74
2023-01-17T19:09:05.339Z,16.96
2023-01-17T19:11:32.239Z,16.66
2023-01-17T19:13:58.964Z,17.09
2023-01-17T19:16:31.230Z,17.51
2023-01-17T19:19:02.637Z,17.76
2023-01-17T19:21:29.658Z,17.85
2023-01-17T19:23:57.754Z,18.00
2023-01-17T19:26:27.200Z,17.74
2023-01-17T19:29:03.874Z,17.95
2023-01-17T19:31:35.786Z,18.20
2023-01-17T19:34:02.946Z,17.92
2023-01-17T19:36:33.897Z,17.71
2023-01-17T19:39:05.895Z,17.99
2023-01-17T19:41:41.328Z,17.81
2023-01-17T19:44:09.561Z,17.45
2023-01-17T19:46:37.284Z,17.62
2023-01-17T19:49:06.727Z,18.01
2023-01-17T19:51:33.651Z,17.88
2023-01-17T19:54:01.781Z,17.70
2023-01-17T19:56:29.152Z,18.18
2023-01-17T19:59:00.873Z,18.30
2023-01-17T20:01:31.066Z,18.05
2023-01-17T20:03:58.859Z,17.82
2023-01-17T20:06:31.263Z,18.07
2023-01-17T20:08:58.208Z,17.99
2023-01-17T20:11:26.308Z,17.82
2023-01-17T20:13:55.554Z,17.55
2023-01-17T20:16:23.913Z,17.58
2023-01-17T20:18:51.151Z,16.89
2023-01-17T20:21:28.650Z,17.33
2023-01-17T20:23:57.099Z,17.72
2023-01-17T20:26:29.694Z,17.73
2023-01-17T20:28:56.728Z,17.88
2023-01-17T20:31:25.727Z,17.83
2023-01-17T20:33:54.276Z,17.78
2023-01-17T20:36:24.835Z,18.23
2023-01-17T20:38:53.215Z,18.29
2023-01-17T20:41:23.023Z,17.83
2023-01-17T20:43:55.154Z,18.27
2023-01-17T20:46:25.164Z,17.89
2023-01-17T20:48:59.107Z,17.89
2023-01-17T20:51:29.756Z,18.13
2023-01-17T20:53:59.825Z,18.72
2023-01-17T20:56:27.803Z,18.20
2023-01-17T20:58:55.032Z,18.20
2023-01-17T21:01:22.937Z,17.75
2023-01-17T21:03:53.218Z,18.08
2023-01-17T21:06:22.590Z,18.25
2023-01-17T21:08:50.147Z,18.34
2023-01-17T21:11:20.058Z,18.27
2023-01-17T21:13:48.804Z,18.35
2023-01-17T21:16:20.359Z,18.38
2023-01-17T21:18:48.646Z,18.32
2023-01-17T21:21:23.819Z,18.35
2023-01-17T21:23:53.204Z,18.16
2023-01-17T21:26:21.432Z,18.53
2023-01-17T21:28:49.711Z,18.63
2023-01-17T21:31:23.667Z,18.34
2023-01-17T21:33:56.493Z,18.61
2023-01-17T21:36:26.171Z,18.68
2023-01-17T21:38:57.881Z,18.77
2023-01-17T21:41:28.517Z,18.83
2023-01-17T21:43:57.510Z,18.71
2023-01-17T21:46:24.922Z,18.53
2023-01-17T21:48:51.869Z,18.05
2023-01-17T21:51:22.126Z,18.35
2023-01-17T21:53:49.056Z,18.28
2023-01-17T21:56:34.930Z,18.59
2023-01-17T21:59:01.984Z,18.85
2023-01-17T22:01:32.136Z,19.09
2023-01-17T22:04:03.928Z,19.07
2023-01-17T22:06:39.143Z,18.98
2023-01-17T22:09:06.348Z,18.94
2023-01-17T22:11:36.413Z,19.16
2023-01-17T22:14:06.543Z,19.46
2023-01-17T22:16:34.326Z,18.90
2023-01-17T22:19:01.244Z,19.05
2023-01-17T22:21:28.672Z,18.92
2023-01-17T22:23:57.467Z,18.73
2023-01-17T22:26:29.719Z,19.31
2023-01-17T22:29:00.049Z,19.37
2023-01-17T22:31:28.355Z,19.00
2023-01-17T22:33:57.485Z,19.00
2023-01-17T22:36:25.660Z,19.20
2023-01-17T22:38:52.867Z,19.02
2023-01-17T22:41:22.499Z,19.36
2023-01-17T22:43:54.415Z,19.20
2023-01-17T22:46:23.518Z,19.25
2023-01-17T22:48:51.063Z,19.10
2023-01-17T22:51:19.786Z,19.23
2023-01-17T22:53:50.030Z,19.35
2023-01-17T22:56:22.242Z,19.17
2023-01-17T22:58:50.067Z,19.21
2023-01-17T23:01:25.872Z,19.48
2023-01-17T23:03:58.085Z,19.54
2023-01-17T23:06:37.732Z,19.40
2023-01-17T23:09:08.384Z,18.97
2023-01-17T23:11:42.358Z,19.02
2023-01-17T23:14:18.132Z,19.21
2023-01-17T23:17:07.811Z,19.55
2023-01-17T23:19:37.298Z,19.30
2023-01-17T23:22:15.879Z,19.27
2023-01-17T23:24:43.960Z,19.41
2023-01-17T23:27:45.483Z,18.61
2023-01-17T23:30:14.082Z,19.36
2023-01-17T23:32:45.892Z,18.79
2023-01-17T23:35:13.588Z,19.38
2023-01-17T23:37:58.564Z,19.46
2023-01-17T23:40:25.303Z,19.56
2023-01-17T23:43:10.657Z,19.42
2023-01-17T23:45:38.901Z,19.61
2023-01-17T23:48:09.551Z,19.49
2023-01-17T23:50:37.994Z,19.68
2023-01-17T23:53:08.656Z,19.86
2023-01-17T23:55:40.222Z,19.53
2023-01-17T23:58:09.797Z,19.46
